Time;durP1;ratioP1;P1;durP2;ratioP2;P2;SDS_P1;SDS_P2;PMS_P1;PMS_P2;Temp;Humidity;BMP_temperature;BMP_pressure;BME280_temperature;BME280_humidity;BME280_pressure;Samples;Min_cycle;Max_cycle;Signal;HPM_P1;HPM_P2
2023/12/31 00:00:54;;;;;;;;;;;;;;;23.10;35.79;100419.16;5031047;28;19914;-52
2023/12/31 00:03:19;;;;;;;;;;;;;;;23.10;35.73;100425.44;5025344;28;20446;-47
2023/12/31 00:05:44;;;;;;;;;;;;;;;23.10;35.73;100414.56;5019517;28;19914;-50
2023/12/31 00:08:11;;;;;;;;;;;;;;;23.11;35.57;100407.31;5010906;28;19921;-47
2023/12/31 00:10:38;;;;;;;;;;;;;;;23.11;35.66;100402.72;5035975;28;19922;-50
2023/12/31 00:13:04;;;;;;;;;;;;;;;23.10;35.79;100401.03;5034743;28;20000;-52
2023/12/31 00:15:29;;;;;;;;;;;;;;;23.09;35.80;100398.53;5066042;28;19989;-49
2023/12/31 00:17:54;;;;;;;;;;;;;;;23.08;35.53;100391.44;5032755;28;19914;-50
2023/12/31 00:20:19;;;;;;;;;;;;;;;23.08;35.77;100389.56;5014233;28;19914;-49
2023/12/31 00:22:44;;;;;;;;;;;;;;;23.08;35.51;100383.31;5007258;28;19925;-47
2023/12/31 00:25:10;;;;;;;;;;;;;;;23.06;35.66;100383.50;5026852;28;19918;-48
2023/12/31 00:27:35;;;;;;;;;;;;;;;23.05;35.58;100375.59;5020864;28;19914;-50
2023/12/31 00:30:00;;;;;;;;;;;;;;;23.03;35.79;100356.00;5008805;28;19974;-46
2023/12/31 00:32:25;;;;;;;;;;;;;;;23.01;35.75;100360.78;5027525;28;19920;-50
2023/12/31 00:34:50;;;;;;;;;;;;;;;22.99;35.49;100355.56;5031751;28;20361;-48
2023/12/31 00:37:16;;;;;;;;;;;;;;;22.98;35.81;100348.50;5007961;28;19924;-47
2023/12/31 00:39:41;;;;;;;;;;;;;;;22.97;35.46;100343.25;5016851;28;19917;-50
2023/12/31 00:42:06;;;;;;;;;;;;;;;22.94;35.85;100345.34;5030216;28;19916;-50
2023/12/31 00:44:31;;;;;;;;;;;;;;;22.93;36.00;100330.09;5016722;28;19918;-48
2023/12/31 00:46:56;;;;;;;;;;;;;;;22.90;35.57;100333.25;5025520;28;19921;-47
2023/12/31 00:49:22;;;;;;;;;;;;;;;22.86;35.74;100328.44;5042409;28;19914;-49
2023/12/31 00:51:47;;;;;;;;;;;;;;;22.69;35.79;100303.63;5027019;28;19959;-48
2023/12/31 00:54:12;;;;;;;;;;;;;;;22.82;35.60;100321.75;5008508;28;19930;-46
2023/12/31 00:56:37;;;;;;;;;;;;;;;22.77;35.96;100322.41;5039099;28;19916;-48
2023/12/31 00:59:02;;;;;;;;;;;;;;;22.73;36.12;100314.88;5068403;28;19922;-50
2023/12/31 01:01:28;;;;;;;;;;;;;;;22.70;36.17;100303.41;5018617;28;19925;-46
2023/12/31 01:03:53;;;;;;;;;;;;;;;22.68;35.92;100305.50;5031609;28;20333;-48
2023/12/31 01:06:18;;;;;;;;;;;;;;;22.65;35.89;100295.06;5036888;28;19925;-45
2023/12/31 01:08:44;;;;;;;;;;;;;;;22.59;36.25;100284.22;5014122;28;19914;-48
2023/12/31 01:11:09;;;;;;;;;;;;;;;22.52;36.39;100289.66;5040391;28;19916;-47
2023/12/31 01:13:34;;;;;;;;;;;;;;;22.47;36.20;100281.28;5037082;28;19991;-46
2023/12/31 01:15:59;;;;;;;;;;;;;;;22.44;36.59;100276.31;5013080;28;19930;-49
2023/12/31 01:18:24;;;;;;;;;;;;;;;22.39;36.59;100271.53;5019386;28;20367;-49
2023/12/31 01:20:49;;;;;;;;;;;;;;;22.36;36.48;100262.97;5043067;28;19912;-46
2023/12/31 01:23:15;;;;;;;;;;;;;;;22.32;36.81;100256.28;5065448;28;19953;-49
2023/12/31 01:25:40;;;;;;;;;;;;;;;22.29;36.56;100246.69;5040319;28;19985;-49
2023/12/31 01:28:05;;;;;;;;;;;;;;;22.26;36.92;100238.16;5035843;28;19948;-48
2023/12/31 01:30:30;;;;;;;;;;;;;;;22.22;37.01;100235.03;5020576;28;19938;-48
2023/12/31 01:32:56;;;;;;;;;;;;;;;22.19;36.86;100241.69;5016697;28;19920;-47
2023/12/31 01:35:21;;;;;;;;;;;;;;;22.18;37.06;100231.91;5032868;28;19924;-47
2023/12/31 01:37:46;;;;;;;;;;;;;;;22.17;36.80;100229.41;5035038;28;19919;-48
2023/12/31 01:40:12;;;;;;;;;;;;;;;22.15;36.92;100226.06;5040457;28;19943;-48
2023/12/31 01:42:37;;;;;;;;;;;;;;;22.13;37.01;100218.16;5043691;28;19925;-50
2023/12/31 01:45:03;;;;;;;;;;;;;;;22.11;37.02;100222.91;5030714;28;19912;-48
2023/12/31 01:47:29;;;;;;;;;;;;;;;22.10;36.97;100215.84;5009534;28;19918;-49
2023/12/31 01:49:54;;;;;;;;;;;;;;;22.09;36.76;100206.06;5066196;28;19914;-52
2023/12/31 01:52:19;;;;;;;;;;;;;;;22.07;36.91;100216.25;5068620;28;19949;-46
2023/12/31 01:54:44;;;;;;;;;;;;;;;22.04;36.87;100215.81;5070938;28;19925;-48
2023/12/31 01:57:09;;;;;;;;;;;;;;;22.00;36.92;100207.25;5063278;28;20352;-53
2023/12/31 01:59:35;;;;;;;;;;;;;;;21.99;37.26;100210.19;5072632;28;19926;-49
2023/12/31 02:02:00;;;;;;;;;;;;;;;21.93;37.26;100198.31;5058566;28;19913;-48
2023/12/31 02:04:30;;;;;;;;;;;;;;;21.93;37.27;100203.72;5010929;28;19983;-47
2023/12/31 02:06:55;;;;;;;;;;;;;;;21.89;37.18;100197.06;5074064;28;19917;-50
2023/12/31 02:09:20;;;;;;;;;;;;;;;21.87;37.14;100202.66;5019328;28;19999;-50
2023/12/31 02:11:46;;;;;;;;;;;;;;;21.85;37.50;100196.63;5012474;28;19919;-49
2023/12/31 02:14:11;;;;;;;;;;;;;;;21.82;37.23;100178.09;5038663;28;19914;-51
2023/12/31 02:16:36;;;;;;;;;;;;;;;21.81;37.47;100179.13;5021405;28;19925;-51
2023/12/31 02:19:01;;;;;;;;;;;;;;;21.81;37.56;100170.19;5016921;28;19927;-50
2023/12/31 02:21:27;;;;;;;;;;;;;;;21.79;37.40;100162.28;5086229;28;19957;-49
2023/12/31 02:23:52;;;;;;;;;;;;;;;21.76;37.42;100160.00;5067422;28;20534;-50
2023/12/31 02:26:17;;;;;;;;;;;;;;;21.78;37.60;100159.78;5008768;28;19994;-51
2023/12/31 02:28:42;;;;;;;;;;;;;;;21.76;37.35;100141.06;5068611;28;19920;-52
2023/12/31 02:31:07;;;;;;;;;;;;;;;21.75;37.62;100133.13;5036512;28;20393;-45
2023/12/31 02:33:33;;;;;;;;;;;;;;;21.70;37.70;100131.88;5008973;28;19918;-50
2023/12/31 02:35:58;;;;;;;;;;;;;;;21.71;37.56;100125.44;5013058;28;19933;-48
2023/12/31 02:38:23;;;;;;;;;;;;;;;21.70;37.54;100112.91;5039342;28;19916;-50
2023/12/31 02:40:48;;;;;;;;;;;;;;;21.70;37.43;100117.50;5037521;28;19916;-50
2023/12/31 02:43:14;;;;;;;;;;;;;;;21.66;37.52;100103.59;5019631;28;19912;-49
2023/12/31 02:45:39;;;;;;;;;;;;;;;21.66;37.54;100114.41;5037984;28;19918;-51
2023/12/31 02:48:05;;;;;;;;;;;;;;;21.63;37.66;100104.00;5030921;28;19918;-50
2023/12/31 02:50:31;;;;;;;;;;;;;;;21.63;37.71;100105.88;5023381;28;19925;-50
2023/12/31 02:52:56;;;;;;;;;;;;;;;21.61;37.65;100102.50;5045866;28;20016;-50
2023/12/31 02:55:21;;;;;;;;;;;;;;;21.59;37.79;100094.63;5018195;28;19918;-47
2023/12/31 02:57:46;;;;;;;;;;;;;;;21.59;37.64;100088.38;5028135;28;19914;-48
2023/12/31 03:00:12;;;;;;;;;;;;;;;21.56;37.68;100078.78;5025570;28;19912;-50
2023/12/31 03:02:37;;;;;;;;;;;;;;;21.54;37.93;100089.00;5044971;28;19934;-48
2023/12/31 03:05:02;;;;;;;;;;;;;;;21.53;37.79;100092.72;5033229;28;19913;-47
2023/12/31 03:07:27;;;;;;;;;;;;;;;21.52;37.94;100080.25;5034963;28;19914;-49
2023/12/31 03:09:53;;;;;;;;;;;;;;;21.51;37.89;100078.59;5014046;28;19918;-50
2023/12/31 03:12:18;;;;;;;;;;;;;;;21.50;37.79;100067.97;5012858;28;19949;-49
2023/12/31 03:14:43;;;;;;;;;;;;;;;21.48;37.96;100057.34;5024980;28;20151;-51
2023/12/31 03:17:08;;;;;;;;;;;;;;;21.48;37.83;100061.94;5039434;28;20517;-46
2023/12/31 03:19:35;;;;;;;;;;;;;;;21.45;37.81;100058.59;5016329;28;19936;-50
2023/12/31 03:22:00;;;;;;;;;;;;;;;21.44;38.04;100051.50;5035185;28;19918;-47
2023/12/31 03:24:27;;;;;;;;;;;;;;;21.42;38.01;100048.19;5035430;28;19925;-51
2023/12/31 03:26:52;;;;;;;;;;;;;;;21.41;37.98;100041.13;5022426;28;19916;-49
2023/12/31 03:29:17;;;;;;;;;;;;;;;21.41;37.80;100037.59;5017358;28;19917;-49
2023/12/31 03:31:42;;;;;;;;;;;;;;;21.39;38.03;100028.84;5041345;28;20409;-50
2023/12/31 03:34:07;;;;;;;;;;;;;;;21.37;38.09;100026.34;5041773;28;19921;-50
2023/12/31 03:36:33;;;;;;;;;;;;;;;21.37;37.85;100017.41;5029049;28;19957;-47
2023/12/31 03:38:59;;;;;;;;;;;;;;;21.35;38.03;100012.19;5048024;28;19929;-49
2023/12/31 03:41:24;;;;;;;;;;;;;;;21.34;37.85;100012.41;5020190;28;19914;-50
2023/12/31 03:43:49;;;;;;;;;;;;;;;21.33;38.23;100010.75;5006165;28;20315;-49
2023/12/31 03:46:14;;;;;;;;;;;;;;;21.31;38.12;99996.56;5031041;28;19913;-49
2023/12/31 03:48:40;;;;;;;;;;;;;;;21.29;37.95;100001.34;5030724;28;20353;-50
2023/12/31 03:51:05;;;;;;;;;;;;;;;21.28;38.14;99992.41;5007438;28;19914;-51
2023/12/31 03:53:30;;;;;;;;;;;;;;;21.27;38.13;99988.03;5025008;28;19963;-50
2023/12/31 03:55:55;;;;;;;;;;;;;;;21.24;38.04;99974.94;5024918;28;20679;-51
2023/12/31 03:58:22;;;;;;;;;;;;;;;21.24;38.08;99980.34;5007840;28;19944;-49
2023/12/31 04:00:48;;;;;;;;;;;;;;;21.22;38.26;99969.72;5082311;28;19914;-50
2023/12/31 04:03:13;;;;;;;;;;;;;;;21.21;38.14;99957.25;5076613;28;19912;-50
2023/12/31 04:05:38;;;;;;;;;;;;;;;21.20;38.21;99955.59;5006026;28;19918;-49
2023/12/31 04:08:03;;;;;;;;;;;;;;;21.18;38.13;99957.66;5026269;28;19916;-48
2023/12/31 04:10:29;;;;;;;;;;;;;;;21.17;38.15;99942.47;5048020;28;19925;-50
2023/12/31 04:12:54;;;;;;;;;;;;;;;21.17;38.07;99942.47;5012440;28;19918;-50
2023/12/31 04:15:19;;;;;;;;;;;;;;;21.15;38.00;99936.47;5014778;28;19969;-51
2023/12/31 04:17:44;;;;;;;;;;;;;;;21.14;38.01;99920.44;5026971;28;20407;-51
2023/12/31 04:20:10;;;;;;;;;;;;;;;21.14;38.30;99920.44;5035114;28;19916;-48
2023/12/31 04:22:35;;;;;;;;;;;;;;;21.12;38.15;99919.81;5032566;28;19917;-51
2023/12/31 04:25:01;;;;;;;;;;;;;;;21.10;38.45;99917.31;5038983;28;19962;-49
2023/12/31 04:27:26;;;;;;;;;;;;;;;21.09;38.32;99904.84;5054425;28;19953;-49
2023/12/31 04:29:52;;;;;;;;;;;;;;;21.08;38.42;99899.66;5010057;28;19921;-50
2023/12/31 04:32:17;;;;;;;;;;;;;;;21.05;38.31;99887.38;5053040;28;19968;-47
2023/12/31 04:34:42;;;;;;;;;;;;;;;21.05;38.33;99890.06;5070123;28;19970;-47
2023/12/31 04:37:07;;;;;;;;;;;;;;;21.03;38.34;99881.38;5016144;28;20311;-49
2023/12/31 04:39:32;;;;;;;;;;;;;;;21.02;38.36;99879.66;5029813;28;19917;-48
2023/12/31 04:41:58;;;;;;;;;;;;;;;21.01;38.63;99867.22;5042383;28;20017;-50
2023/12/31 04:44:23;;;;;;;;;;;;;;;20.99;38.34;99854.97;5022157;28;19982;-47
2023/12/31 04:46:48;;;;;;;;;;;;;;;20.97;38.62;99847.88;5065446;28;19916;-49
2023/12/31 04:49:16;;;;;;;;;;;;;;;20.96;38.59;99840.81;5043328;28;19914;-49
2023/12/31 04:51:41;;;;;;;;;;;;;;;20.96;38.40;99834.59;5012073;28;19960;-50
2023/12/31 04:54:07;;;;;;;;;;;;;;;20.93;38.70;99827.72;5075932;28;19912;-47
2023/12/31 04:56:32;;;;;;;;;;;;;;;20.93;38.45;99821.47;5035293;28;19922;-50
2023/12/31 04:58:58;;;;;;;;;;;;;;;20.91;38.50;99824.41;5008868;28;19971;-51
2023/12/31 05:01:26;;;;;;;;;;;;;;;20.43;38.83;99742.69;5035664;28;19980;-47
2023/12/31 05:03:51;;;;;;;;;;;;;;;20.90;38.49;99819.22;5040115;28;20443;-51
2023/12/31 05:06:16;;;;;;;;;;;;;;;20.88;38.55;99814.00;5025514;28;19913;-49
2023/12/31 05:08:43;;;;;;;;;;;;;;;20.88;38.70;99800.50;5018343;28;20201;-49
2023/12/31 05:11:08;;;;;;;;;;;;;;;20.86;38.67;99799.88;5022302;28;19949;-48
2023/12/31 05:13:33;;;;;;;;;;;;;;;20.86;38.74;99799.06;5040894;28;20379;-49
2023/12/31 05:15:58;;;;;;;;;;;;;;;20.85;38.58;99783.84;5030333;28;20019;-52
2023/12/31 05:18:23;;;;;;;;;;;;;;;20.84;38.47;99784.91;5038516;28;19925;-48
2023/12/31 05:20:49;;;;;;;;;;;;;;;20.83;38.44;99784.09;5029825;28;19921;-49
2023/12/31 05:23:14;;;;;;;;;;;;;;;20.82;38.86;99785.13;5012628;28;19914;-46
2023/12/31 05:25:39;;;;;;;;;;;;;;;20.81;38.75;99786.13;5018969;28;20395;-47
2023/12/31 05:28:04;;;;;;;;;;;;;;;20.80;38.79;99778.25;5036508;28;20376;-46
2023/12/31 05:30:29;;;;;;;;;;;;;;;20.79;38.80;99780.13;5022863;28;19924;-47
2023/12/31 05:32:55;;;;;;;;;;;;;;;20.78;38.79;99762.28;5022464;28;19918;-46
2023/12/31 05:35:20;;;;;;;;;;;;;;;20.77;38.65;99762.47;5021134;28;20432;-46
2023/12/31 05:37:45;;;;;;;;;;;;;;;20.77;38.89;99778.66;5012759;28;19917;-47
2023/12/31 05:40:10;;;;;;;;;;;;;;;20.77;38.66;99759.75;5016205;28;19918;-45
2023/12/31 05:42:36;;;;;;;;;;;;;;;20.75;38.62;99751.88;5025943;28;19918;-49
2023/12/31 05:45:01;;;;;;;;;;;;;;;20.74;38.83;99752.91;5025154;28;20033;-50
2023/12/31 05:47:26;;;;;;;;;;;;;;;20.73;38.65;99743.16;5009830;28;19920;-47
2023/12/31 05:49:51;;;;;;;;;;;;;;;20.72;38.77;99741.47;5042622;28;19952;-46
2023/12/31 05:52:16;;;;;;;;;;;;;;;20.71;38.89;99742.53;5034308;28;19933;-47
2023/12/31 05:54:41;;;;;;;;;;;;;;;20.70;38.76;99730.06;5007348;28;19918;-46
2023/12/31 05:57:07;;;;;;;;;;;;;;;20.70;38.60;99730.06;5078161;28;19923;-47
2023/12/31 05:59:32;;;;;;;;;;;;;;;20.69;38.67;99725.72;5070147;28;19925;-50
2023/12/31 06:01:57;;;;;;;;;;;;;;;20.68;38.79;99730.25;5017404;28;19918;-48
2023/12/31 06:04:23;;;;;;;;;;;;;;;20.66;38.65;99718.84;5022343;28;19956;-50
2023/12/31 06:06:48;;;;;;;;;;;;;;;20.66;38.70;99718.84;5034143;28;19912;-47
2023/12/31 06:09:13;;;;;;;;;;;;;;;20.66;38.81;99723.41;5004985;28;19918;-47
2023/12/31 06:11:38;;;;;;;;;;;;;;;20.64;38.99;99709.28;5048495;28;19916;-48
2023/12/31 06:14:04;;;;;;;;;;;;;;;20.62;38.82;99704.09;5038218;28;19952;-50
2023/12/31 06:16:29;;;;;;;;;;;;;;;20.62;38.78;99687.06;5021129;28;19922;-47
2023/12/31 06:18:54;;;;;;;;;;;;;;;20.61;38.74;99696.22;5019167;28;19924;-51
2023/12/31 06:21:19;;;;;;;;;;;;;;;20.60;38.98;99681.88;5028554;28;19912;-50
2023/12/31 06:23:44;;;;;;;;;;;;;;;20.59;38.62;99687.47;5020824;28;20459;-49
2023/12/31 06:26:09;;;;;;;;;;;;;;;20.58;38.84;99675.84;5077038;28;19921;-50
2023/12/31 06:28:35;;;;;;;;;;;;;;;20.56;38.76;99672.53;5032729;28;19945;-46
2023/12/31 06:31:00;;;;;;;;;;;;;;;20.54;38.82;99669.19;5018658;28;19925;-47
2023/12/31 06:33:26;;;;;;;;;;;;;;;20.55;38.98;99678.13;5002331;28;19918;-48
2023/12/31 06:35:51;;;;;;;;;;;;;;;20.53;39.13;99667.56;5006408;28;20004;-47
2023/12/31 06:38:16;;;;;;;;;;;;;;;20.53;39.14;99667.56;5033849;28;20376;-50
2023/12/31 06:40:41;;;;;;;;;;;;;;;20.52;38.97;99665.91;5021832;28;19940;-51
2023/12/31 06:43:07;;;;;;;;;;;;;;;20.52;39.15;99660.50;5024123;28;19981;-49
2023/12/31 06:45:32;;;;;;;;;;;;;;;20.51;39.29;99649.88;5016804;28;19927;-47
2023/12/31 06:47:57;;;;;;;;;;;;;;;20.51;39.34;99645.31;5010770;28;19918;-46
2023/12/31 06:50:22;;;;;;;;;;;;;;;20.51;39.43;99649.88;5024549;28;19918;-51
2023/12/31 06:52:47;;;;;;;;;;;;;;;20.50;39.60;99637.44;5013576;28;19967;-50
2023/12/31 06:55:13;;;;;;;;;;;;;;;20.50;39.78;99634.72;5001109;28;20020;-49
2023/12/31 06:57:38;;;;;;;;;;;;;;;20.49;39.83;99636.59;5017029;28;19927;-50
2023/12/31 07:00:03;;;;;;;;;;;;;;;20.48;39.85;99632.25;5019347;28;19967;-50
2023/12/31 07:02:30;;;;;;;;;;;;;;;20.49;40.00;99617.72;5012455;28;19928;-49
2023/12/31 07:04:55;;;;;;;;;;;;;;;20.49;40.11;99614.19;5012408;28;19913;-49
2023/12/31 07:07:20;;;;;;;;;;;;;;;20.49;39.76;99592.59;5036608;28;19936;-48
2023/12/31 07:09:45;;;;;;;;;;;;;;;20.48;40.21;99605.25;5020647;28;19930;-45
2023/12/31 07:12:10;;;;;;;;;;;;;;;20.48;40.12;99591.75;5009695;28;19939;-49
2023/12/31 07:14:35;;;;;;;;;;;;;;;20.46;40.13;99594.63;5018473;28;19920;-50
2023/12/31 07:17:01;;;;;;;;;;;;;;;20.46;40.22;99600.00;5017904;28;19918;-50
2023/12/31 07:19:26;;;;;;;;;;;;;;;20.45;40.32;99579.47;5002961;28;20007;-48
2023/12/31 07:21:51;;;;;;;;;;;;;;;20.45;40.28;99584.88;5017164;28;19921;-49
2023/12/31 07:24:16;;;;;;;;;;;;;;;20.44;40.19;99579.69;5066429;28;19973;-50
2023/12/31 07:26:41;;;;;;;;;;;;;;;20.43;40.26;99589.66;5067487;28;19947;-48
2023/12/31 07:29:06;;;;;;;;;;;;;;;20.43;40.29;99575.31;5018301;28;19914;-49
2023/12/31 07:31:35;;;;;;;;;;;;;;;20.42;40.16;99568.25;5023469;28;19985;-50
2023/12/31 07:34:00;;;;;;;;;;;;;;;20.42;40.55;99565.56;5004651;28;19920;-46
2023/12/31 07:36:26;;;;;;;;;;;;;;;20.41;40.81;99572.00;5013614;28;19957;-46
2023/12/31 07:38:51;;;;;;;;;;;;;;;20.39;40.49;99569.53;5013214;28;19956;-44
2023/12/31 07:41:16;;;;;;;;;;;;;;;20.38;40.83;99570.53;5082917;28;19918;-47
2023/12/31 07:43:42;;;;;;;;;;;;;;;20.37;41.01;99563.50;5006370;28;20114;-46
2023/12/31 07:46:08;;;;;;;;;;;;;;;20.38;40.79;99570.53;5021363;28;19936;-48
2023/12/31 07:48:33;;;;;;;;;;;;;;;20.37;40.75;99574.28;5008648;28;19979;-46
2023/12/31 07:50:59;;;;;;;;;;;;;;;20.37;40.93;99565.34;4995188;28;19922;-46
2023/12/31 07:53:24;;;;;;;;;;;;;;;20.37;41.00;99565.34;5013364;28;19914;-48
2023/12/31 07:55:49;;;;;;;;;;;;;;;20.36;40.68;99559.13;5011603;28;19934;-48
2023/12/31 07:58:14;;;;;;;;;;;;;;;20.36;40.57;99559.13;5004665;28;19926;-49
2023/12/31 08:00:39;;;;;;;;;;;;;;;20.35;40.89;99554.78;5007884;28;19925;-50
2023/12/31 08:03:05;;;;;;;;;;;;;;;20.34;40.84;99547.69;5036020;28;19927;-47
2023/12/31 08:05:32;;;;;;;;;;;;;;;20.34;40.87;99549.56;5019313;28;19920;-48
2023/12/31 08:07:57;;;;;;;;;;;;;;;20.33;40.62;99546.06;5034866;28;19910;-49
2023/12/31 08:10:22;;;;;;;;;;;;;;;20.33;40.85;99551.44;5023974;28;19925;-47
2023/12/31 08:12:48;;;;;;;;;;;;;;;20.30;40.76;99530.28;5016240;28;19912;-46
2023/12/31 08:15:13;;;;;;;;;;;;;;;20.31;40.54;99533.81;5021170;28;19949;-47
2023/12/31 08:17:38;;;;;;;;;;;;;;;20.29;40.60;99522.41;5009790;28;19918;-46
2023/12/31 08:20:04;;;;;;;;;;;;;;;20.29;40.42;99522.41;5017053;28;19967;-46
2023/12/31 08:22:29;;;;;;;;;;;;;;;20.27;40.68;99528.00;5029976;28;20200;-49
2023/12/31 08:24:55;;;;;;;;;;;;;;;20.26;40.82;99528.22;5029145;28;19973;-48
2023/12/31 08:27:20;;;;;;;;;;;;;;;20.24;40.64;99520.34;5059655;28;19921;-47
2023/12/31 08:29:45;;;;;;;;;;;;;;;20.22;40.57;99517.03;5011223;28;19925;-49
2023/12/31 08:32:10;;;;;;;;;;;;;;;20.22;40.83;99522.44;5071076;28;20408;-45
2023/12/31 08:34:37;;;;;;;;;;;;;;;20.21;40.69;99513.47;5011597;28;19949;-48
2023/12/31 08:37:02;;;;;;;;;;;;;;;20.19;40.78;99507.47;5008445;28;20317;-50
2023/12/31 08:39:27;;;;;;;;;;;;;;;20.18;40.66;99505.00;5024018;28;20000;-45
2023/12/31 08:41:53;;;;;;;;;;;;;;;20.17;40.64;99501.44;5012036;28;19932;-48
2023/12/31 08:44:18;;;;;;;;;;;;;;;20.18;40.60;99488.81;5010710;28;19921;-45
2023/12/31 08:46:43;;;;;;;;;;;;;;;20.18;40.64;99489.63;5017534;28;20368;-44
2023/12/31 08:49:09;;;;;;;;;;;;;;;20.17;40.60;99484.41;5012612;28;19964;-47
2023/12/31 08:51:34;;;;;;;;;;;;;;;20.17;40.53;99477.16;5019697;28;19917;-47
2023/12/31 08:53:59;;;;;;;;;;;;;;;20.16;40.86;99482.78;5015807;28;19918;-48
2023/12/31 08:56:24;;;;;;;;;;;;;;;20.16;40.66;99474.69;5041324;28;19921;-46
2023/12/31 08:58:49;;;;;;;;;;;;;;;20.16;40.88;99477.38;5009327;28;19922;-46
2023/12/31 09:01:16;;;;;;;;;;;;;;;20.17;40.96;99468.22;5013928;28;20464;-44
2023/12/31 09:03:41;;;;;;;;;;;;;;;20.16;40.90;99456.63;5014206;28;19924;-45
2023/12/31 09:06:06;;;;;;;;;;;;;;;20.17;41.10;99455.56;4998711;28;20004;-45
2023/12/31 09:08:31;;;;;;;;;;;;;;;20.18;40.95;99459.13;5062543;28;20347;-46
2023/12/31 09:10:56;;;;;;;;;;;;;;;20.18;40.96;99454.56;5006453;28;19948;-47
2023/12/31 09:13:22;;;;;;;;;;;;;;;20.21;40.87;99455.97;5009646;28;19940;-44
2023/12/31 09:15:47;;;;;;;;;;;;;;;20.23;41.08;99456.59;5005506;28;19924;-46
2023/12/31 09:18:13;;;;;;;;;;;;;;;20.26;40.92;99426.47;5009131;28;20455;-48
2023/12/31 09:20:38;;;;;;;;;;;;;;;20.27;40.66;99430.84;5083249;28;19920;-49
2023/12/31 09:23:03;;;;;;;;;;;;;;;20.29;40.77;99436.03;5006062;28;19936;-45
2023/12/31 09:25:28;;;;;;;;;;;;;;;20.31;40.59;99440.19;5091665;28;19917;-46
2023/12/31 09:27:54;;;;;;;;;;;;;;;20.33;40.64;99443.47;5034985;28;19918;-47
2023/12/31 09:30:19;;;;;;;;;;;;;;;20.35;40.61;99446.81;5012970;28;19921;-44
2023/12/31 09:32:44;;;;;;;;;;;;;;;20.38;40.87;99437.44;5044608;28;20195;-44
2023/12/31 09:35:10;;;;;;;;;;;;;;;20.40;40.85;99444.28;5016278;28;19920;-43
2023/12/31 09:37:35;;;;;;;;;;;;;;;20.43;40.71;99445.72;5021728;28;19967;-44
2023/12/31 09:40:00;;;;;;;;;;;;;;;20.44;40.54;99436.59;5013603;28;19949;-44
2023/12/31 09:42:29;;;;;;;;;;;;;;;20.47;40.70;99442.41;5027086;28;19928;-48
2023/12/31 09:44:54;;;;;;;;;;;;;;;20.51;40.64;99445.50;5019662;28;19912;-45
2023/12/31 09:47:19;;;;;;;;;;;;;;;20.53;40.42;99442.63;5071449;28;20277;-47
2023/12/31 09:49:44;;;;;;;;;;;;;;;20.55;40.46;99438.63;5063532;28;19924;-47
2023/12/31 09:52:09;;;;;;;;;;;;;;;20.57;40.34;99435.75;5066539;28;19922;-48
2023/12/31 09:54:35;;;;;;;;;;;;;;;20.58;40.21;99446.31;5012445;28;19916;-47
2023/12/31 09:57:00;;;;;;;;;;;;;;;20.61;40.19;99450.47;5061579;28;19914;-49
2023/12/31 09:59:27;;;;;;;;;;;;;;;20.62;40.29;99446.72;5007868;28;20029;-46
2023/12/31 10:01:58;;;;;;;;;;;;;;;20.64;40.03;99455.41;5023041;28;20380;-49
2023/12/31 10:04:23;;;;;;;;;;;;;;;20.65;40.01;99443.59;5032709;28;19932;-47
2023/12/31 10:06:50;;;;;;;;;;;;;;;20.68;39.96;99451.25;5060695;28;19914;-50
2023/12/31 10:09:17;;;;;;;;;;;;;;;20.70;39.54;99447.28;5068776;28;19914;-48
2023/12/31 10:11:42;;;;;;;;;;;;;;;20.73;39.82;99443.34;5008171;28;20217;-46
2023/12/31 10:14:07;;;;;;;;;;;;;;;20.74;39.46;99447.69;5074873;28;19965;-45
2023/12/31 10:16:33;;;;;;;;;;;;;;;20.75;39.70;99448.53;5016671;28;20015;-49
2023/12/31 10:18:59;;;;;;;;;;;;;;;20.76;39.55;99445.59;5088043;28;19927;-47
2023/12/31 10:21:24;;;;;;;;;;;;;;;20.79;39.40;99431.66;5013034;28;19917;-46
2023/12/31 10:23:50;;;;;;;;;;;;;;;20.80;39.59;99429.78;5009334;28;19928;-45
2023/12/31 10:26:15;;;;;;;;;;;;;;;20.81;39.67;99439.53;5020255;28;19920;-50
2023/12/31 10:28:40;;;;;;;;;;;;;;;20.84;39.16;99441.81;5065146;28;19917;-45
2023/12/31 10:31:06;;;;;;;;;;;;;;;20.86;39.24;99440.56;5024687;28;19914;-47
2023/12/31 10:33:34;;;;;;;;;;;;;;;20.86;39.45;99443.28;5023187;28;19983;-46
2023/12/31 10:36:06;;;;;;;;;;;;;;;20.90;39.43;99446.38;5017617;28;19921;-49
2023/12/31 10:38:44;;;;;;;;;;;;;;;20.91;39.37;99440.75;5005378;28;19967;-48
2023/12/31 10:41:10;;;;;;;;;;;;;;;20.92;39.33;99434.28;5002951;28;19938;-48
2023/12/31 10:43:36;;;;;;;;;;;;;;;20.96;39.29;99423.88;5032024;28;20291;-49
2023/12/31 10:46:01;;;;;;;;;;;;;;;20.99;39.72;99434.25;5065464;28;19917;-45
2023/12/31 10:48:26;;;;;;;;;;;;;;;21.02;39.64;99444.59;5015270;28;19938;-49
2023/12/31 10:50:52;;;;;;;;;;;;;;;21.05;39.48;99484.72;5070334;28;19916;-48
2023/12/31 10:53:17;;;;;;;;;;;;;;;21.07;39.60;99490.75;5022639;28;19913;-46
2023/12/31 10:55:42;;;;;;;;;;;;;;;21.09;39.39;99494.03;5066718;28;19979;-46
2023/12/31 10:58:08;;;;;;;;;;;;;;;21.11;39.43;99477.59;5075373;28;19931;-49
2023/12/31 11:00:33;;;;;;;;;;;;;;;21.12;39.49;99482.81;5064098;28;20326;-46
2023/12/31 11:02:59;;;;;;;;;;;;;;;21.13;39.67;99475.53;5020766;28;19981;-46
2023/12/31 11:05:24;;;;;;;;;;;;;;;21.15;39.45;99439.13;5013048;28;19919;-49
2023/12/31 11:07:49;;;;;;;;;;;;;;;21.18;39.65;99445.97;5021496;28;19918;-49
2023/12/31 11:10:14;;;;;;;;;;;;;;;21.20;39.60;99452.81;5004941;28;19921;-46
2023/12/31 11:12:40;;;;;;;;;;;;;;;21.23;39.33;99436.13;5030993;28;19924;-48
2023/12/31 11:15:18;;;;;;;;;;;;;;;21.27;39.33;99438.41;5031917;28;19925;-47
2023/12/31 11:17:48;;;;;;;;;;;;;;;21.28;39.68;99430.09;5065770;28;19929;-46
2023/12/31 11:20:24;;;;;;;;;;;;;;;21.32;39.43;99452.13;5068700;28;19914;-45
2023/12/31 11:22:56;;;;;;;;;;;;;;;21.34;39.49;99445.47;5065258;28;19925;-49
2023/12/31 11:25:22;;;;;;;;;;;;;;;21.37;39.57;99434.22;5031831;28;19912;-47
2023/12/31 11:27:51;;;;;;;;;;;;;;;21.40;39.58;99439.16;5059588;28;20226;-48
2023/12/31 11:30:27;;;;;;;;;;;;;;;21.44;39.66;99426.84;5021227;28;20179;-48
2023/12/31 11:32:52;;;;;;;;;;;;;;;21.48;39.40;99419.13;5070842;28;19941;-49
2023/12/31 11:35:37;;;;;;;;;;;;;;;21.53;39.46;99416.56;5010115;28;19922;-50
2023/12/31 11:38:03;;;;;;;;;;;;;;;21.57;39.41;99419.66;5010670;28;19918;-50
2023/12/31 11:40:29;;;;;;;;;;;;;;;21.61;39.34;99420.88;5043626;28;19917;-50
2023/12/31 11:42:54;;;;;;;;;;;;;;;21.62;39.39;99409.88;5029219;28;19971;-51
2023/12/31 11:45:38;;;;;;;;;;;;;;;21.67;39.20;99425.41;5037855;28;19922;-53
2023/12/31 11:48:03;;;;;;;;;;;;;;;21.71;38.97;99422.03;5009623;28;19918;-54
2023/12/31 11:50:28;;;;;;;;;;;;;;;21.74;39.16;99412.63;5016151;28;19914;-53
2023/12/31 11:52:54;;;;;;;;;;;;;;;21.77;38.90;99412.19;5066805;28;19974;-53
2023/12/31 11:55:19;;;;;;;;;;;;;;;21.79;38.88;99398.44;5032708;28;19932;-52
2023/12/31 11:57:44;;;;;;;;;;;;;;;21.82;38.89;99412.34;5009578;28;19939;-47
2023/12/31 12:00:11;;;;;;;;;;;;;;;21.84;39.04;99414.84;5067412;28;19921;-50
2023/12/31 12:02:37;;;;;;;;;;;;;;;21.86;38.82;99410.84;5019262;28;19918;-50
2023/12/31 12:05:02;;;;;;;;;;;;;;;21.89;38.89;99415.81;5009807;28;19925;-47
2023/12/31 12:07:28;;;;;;;;;;;;;;;21.93;38.64;99414.31;5002394;28;19922;-44
2023/12/31 12:09:53;;;;;;;;;;;;;;;21.93;38.63;99419.72;5006958;28;19925;-48
2023/12/31 12:12:18;;;;;;;;;;;;;;;21.99;38.32;99425.28;5064091;28;19921;-49
2023/12/31 12:14:44;;;;;;;;;;;;;;;22.03;38.64;99435.44;5000316;28;19922;-45
2023/12/31 12:17:09;;;;;;;;;;;;;;;22.06;38.33;99436.88;4998626;28;19918;-45
2023/12/31 12:19:35;;;;;;;;;;;;;;;22.09;38.22;99448.09;4998653;28;19914;-48
2023/12/31 12:22:01;;;;;;;;;;;;;;;22.09;38.03;99437.25;5061844;28;19918;-47
2023/12/31 12:24:27;;;;;;;;;;;;;;;22.11;38.33;99439.75;5003078;28;19925;-48
2023/12/31 12:26:52;;;;;;;;;;;;;;;22.13;38.02;99443.06;5009886;28;19929;-49
2023/12/31 12:29:17;;;;;;;;;;;;;;;22.15;38.29;99446.38;5067453;28;20013;-45
2023/12/31 12:31:43;;;;;;;;;;;;;;;22.17;38.15;99446.97;5024091;28;19925;-45
2023/12/31 12:34:09;;;;;;;;;;;;;;;22.21;37.84;99446.28;5003435;28;20329;-46